createdAt,value
2022-10-28T00:01:32.685Z,16.96
2022-10-28T00:04:02.900Z,16.92
2022-10-28T00:06:36.107Z,16.92
2022-10-28T00:09:08.162Z,16.92
2022-10-28T00:11:39.556Z,16.89
2022-10-28T00:14:09.409Z,16.89
2022-10-28T00:16:39.423Z,16.91
2022-10-28T00:19:11.700Z,16.85
2022-10-28T00:21:42.536Z,16.86
2022-10-28T00:24:13.738Z,16.86
2022-10-28T00:26:44.308Z,16.85
2022-10-28T00:29:15.039Z,16.83
2022-10-28T00:31:45.319Z,16.81
2022-10-28T00:34:16.418Z,16.79
2022-10-28T00:36:46.814Z,16.76
2022-10-28T00:39:18.427Z,16.74
2022-10-28T00:41:49.636Z,16.68
2022-10-28T00:44:58.426Z,16.62
2022-10-28T00:47:52.633Z,16.59
2022-10-28T00:50:42.543Z,16.56
2022-10-28T00:53:16.060Z,16.54
2022-10-28T00:55:45.514Z,16.52
2022-10-28T00:58:14.407Z,16.49
2022-10-28T01:00:42.994Z,16.46
2022-10-28T01:03:12.693Z,16.43
2022-10-28T01:05:44.128Z,16.38
2022-10-28T01:08:12.809Z,16.36
2022-10-28T01:11:02.802Z,16.27
2022-10-28T01:13:45.462Z,16.26
2022-10-28T01:16:27.204Z,16.19
2022-10-28T01:19:23.077Z,16.12
2022-10-28T01:22:08.463Z,16.12
2022-10-28T01:24:57.513Z,16.10
2022-10-28T01:28:01.141Z,16.09
2022-10-28T01:30:40.883Z,16.09
2022-10-28T01:33:20.635Z,16.09
2022-10-28T01:35:57.787Z,16.08
2022-10-28T01:38:35.374Z,16.06
2022-10-28T01:41:12.464Z,16.07
2022-10-28T01:43:49.783Z,16.07
2022-10-28T01:46:21.664Z,16.03
2022-10-28T01:48:58.164Z,16.02
2022-10-28T01:51:31.147Z,16.00
2022-10-28T01:54:03.506Z,15.98
2022-10-28T01:56:38.099Z,15.96
2022-10-28T01:59:10.565Z,15.94
2022-10-28T02:01:39.295Z,15.93
2022-10-28T02:04:09.236Z,15.92
2022-10-28T02:06:39.929Z,15.90
2022-10-28T02:09:21.703Z,15.84
2022-10-28T02:12:09.849Z,15.81
2022-10-28T02:14:56.753Z,15.77
2022-10-28T02:17:34.118Z,15.72
2022-10-28T02:20:17.079Z,15.70
2022-10-28T02:22:50.758Z,15.70
2022-10-28T02:25:23.299Z,15.70
2022-10-28T02:27:59.150Z,15.68
2022-10-28T02:30:33.975Z,15.64
2022-10-28T02:33:04.762Z,15.63
2022-10-28T02:35:40.315Z,15.66
2022-10-28T02:38:15.029Z,15.65
2022-10-28T02:40:44.758Z,15.62
2022-10-28T02:43:16.726Z,15.60
2022-10-28T02:45:49.813Z,15.55
2022-10-28T02:48:22.357Z,15.53
2022-10-28T02:50:59.122Z,15.49
2022-10-28T02:53:33.607Z,15.49
2022-10-28T02:56:04.575Z,15.41
2022-10-28T02:58:40.006Z,15.38
2022-10-28T03:01:08.873Z,15.37
2022-10-28T03:03:37.297Z,15.31
2022-10-28T03:06:07.181Z,15.27
2022-10-28T03:08:35.419Z,15.22
2022-10-28T03:11:03.687Z,15.13
2022-10-28T03:13:31.946Z,15.08
2022-10-28T03:16:00.180Z,15.03
2022-10-28T03:18:28.709Z,14.99
2022-10-28T03:20:59.007Z,14.99
2022-10-28T03:23:28.925Z,14.95
2022-10-28T03:25:57.133Z,14.93
2022-10-28T03:28:25.480Z,14.90
2022-10-28T03:30:53.644Z,14.87
2022-10-28T03:33:21.882Z,14.91
2022-10-28T03:35:50.076Z,14.89
2022-10-28T03:38:18.422Z,14.87
2022-10-28T03:40:50.359Z,14.86
2022-10-28T03:43:19.094Z,14.85
2022-10-28T03:45:48.807Z,14.81
2022-10-28T03:48:17.228Z,14.79
2022-10-28T03:50:45.660Z,14.76
2022-10-28T03:53:13.890Z,14.75
2022-10-28T03:55:42.211Z,14.76
2022-10-28T03:58:11.880Z,14.75
2022-10-28T04:00:40.159Z,14.76
2022-10-28T04:03:08.400Z,14.76
2022-10-28T04:05:36.680Z,14.76
2022-10-28T04:08:05.475Z,14.81
2022-10-28T04:10:33.798Z,14.84
2022-10-28T04:13:02.732Z,14.86
2022-10-28T04:15:32.516Z,14.86
2022-10-28T04:18:00.803Z,14.85
2022-10-28T04:20:29.289Z,14.81
2022-10-28T04:22:57.731Z,14.81
2022-10-28T04:25:28.868Z,14.77
2022-10-28T04:27:57.398Z,14.78
2022-10-28T04:30:26.018Z,14.72
2022-10-28T04:32:55.925Z,14.69
2022-10-28T04:35:25.172Z,14.67
2022-10-28T04:37:53.563Z,14.64
2022-10-28T04:40:22.135Z,14.61
2022-10-28T04:42:50.539Z,14.60
2022-10-28T04:45:19.122Z,14.55
2022-10-28T04:47:47.346Z,14.54
2022-10-28T04:50:17.245Z,14.53
2022-10-28T04:52:45.522Z,14.49
2022-10-28T04:55:13.995Z,14.52
2022-10-28T04:57:42.537Z,14.50
2022-10-28T05:00:12.783Z,14.49
2022-10-28T05:02:45.262Z,14.50
2022-10-28T05:07:45.919Z,14.35
2022-10-28T05:10:17.917Z,14.34
2022-10-28T05:12:46.719Z,14.33
2022-10-28T05:15:17.680Z,14.36
2022-10-28T05:17:48.151Z,14.38
2022-10-28T05:20:19.205Z,14.39
2022-10-28T05:22:48.320Z,14.42
2022-10-28T05:25:17.286Z,14.43
2022-10-28T05:27:45.690Z,14.46
2022-10-28T05:30:14.821Z,14.47
2022-10-28T05:32:43.315Z,14.53
2022-10-28T05:35:12.724Z,14.52
2022-10-28T05:37:42.288Z,14.55
2022-10-28T05:40:12.758Z,14.57
2022-10-28T05:42:44.403Z,14.53
2022-10-28T05:45:14.176Z,14.47
2022-10-28T05:47:45.172Z,14.42
2022-10-28T05:50:14.632Z,14.38
2022-10-28T05:52:48.740Z,14.35
2022-10-28T05:55:19.332Z,14.34
2022-10-28T05:57:48.987Z,14.40
2022-10-28T06:00:19.120Z,14.37
2022-10-28T06:06:00.462Z,14.40
2022-10-28T06:08:30.611Z,14.44
2022-10-28T06:10:57.453Z,14.46
2022-10-28T06:13:25.792Z,14.46
2022-10-28T06:15:55.709Z,14.47
2022-10-28T06:18:24.593Z,14.48
2022-10-28T06:20:54.484Z,14.46
2022-10-28T06:23:23.705Z,14.52
2022-10-28T06:28:26.497Z,14.47
2022-10-28T06:30:55.303Z,14.42
2022-10-28T06:33:23.604Z,14.39
2022-10-28T06:35:56.769Z,14.39
2022-10-28T06:38:25.241Z,14.42
2022-10-28T06:40:57.741Z,14.48
2022-10-28T06:43:26.188Z,14.51
2022-10-28T06:45:55.786Z,14.54
2022-10-28T06:48:26.108Z,14.54
2022-10-28T06:50:57.678Z,14.55
2022-10-28T06:53:26.449Z,14.55
2022-10-28T06:55:57.255Z,14.58
2022-10-28T06:58:27.013Z,14.60
2022-10-28T07:00:55.827Z,14.63
2022-10-28T07:03:24.390Z,14.72
2022-10-28T07:05:52.594Z,14.73
2022-10-28T07:08:21.114Z,14.73
2022-10-28T07:10:57.216Z,14.75
2022-10-28T07:13:26.069Z,14.73
2022-10-28T07:15:55.647Z,14.76
2022-10-28T07:18:25.834Z,14.79
2022-10-28T07:20:54.283Z,14.83
2022-10-28T07:23:22.650Z,14.81
2022-10-28T07:25:56.678Z,14.85
2022-10-28T07:28:26.620Z,14.83
2022-10-28T07:30:55.347Z,14.87
2022-10-28T07:33:23.572Z,14.86
2022-10-28T07:35:51.979Z,14.83
2022-10-28T07:38:20.230Z,14.81
2022-10-28T07:40:48.763Z,14.72
2022-10-28T07:43:18.466Z,14.67
2022-10-28T07:45:46.837Z,14.71
2022-10-28T07:48:15.281Z,14.62
2022-10-28T07:50:43.656Z,14.59
2022-10-28T07:53:12.050Z,14.58
2022-10-28T07:55:40.513Z,14.58
2022-10-28T07:58:08.793Z,14.60
2022-10-28T08:00:38.456Z,14.62
2022-10-28T08:03:06.825Z,14.65
2022-10-28T08:05:35.101Z,14.69
2022-10-28T08:08:03.501Z,14.74
2022-10-28T08:10:31.801Z,14.74
2022-10-28T08:13:01.081Z,14.77
2022-10-28T08:15:29.903Z,14.81
2022-10-28T08:17:59.563Z,14.85
2022-10-28T08:20:28.009Z,14.90
2022-10-28T08:22:56.611Z,14.91
2022-10-28T08:25:25.113Z,14.95
2022-10-28T08:27:53.490Z,15.00
2022-10-28T08:30:21.831Z,15.03
2022-10-28T08:32:50.223Z,15.08
2022-10-28T08:35:19.930Z,15.10
2022-10-28T08:37:53.042Z,15.10
2022-10-28T08:40:28.845Z,15.11
2022-10-28T08:43:04.918Z,15.11
2022-10-28T08:45:47.727Z,15.15
2022-10-28T08:48:25.177Z,15.17
2022-10-28T08:51:00.389Z,15.22
2022-10-28T08:53:33.499Z,15.24
2022-10-28T08:56:14.184Z,15.32
2022-10-28T08:58:45.186Z,15.36
2022-10-28T09:01:34.792Z,15.40
2022-10-28T09:04:14.459Z,15.46
2022-10-28T09:06:44.016Z,15.52
2022-10-28T09:09:19.916Z,15.57
2022-10-28T09:12:12.704Z,15.62
2022-10-28T09:15:08.273Z,15.67
2022-10-28T09:17:46.289Z,15.74
2022-10-28T09:20:20.597Z,15.81
2022-10-28T09:22:57.749Z,15.80
2022-10-28T09:25:35.519Z,15.80
2022-10-28T09:28:32.374Z,15.80
2022-10-28T09:31:08.339Z,15.81
2022-10-28T09:33:52.618Z,15.85
2022-10-28T09:36:26.452Z,15.88
2022-10-28T09:38:58.416Z,15.93
2022-10-28T09:41:32.290Z,16.02
2022-10-28T09:44:08.761Z,16.03
2022-10-28T09:46:39.341Z,16.04
2022-10-28T09:49:15.644Z,16.08
2022-10-28T09:51:50.815Z,16.16
2022-10-28T09:54:29.982Z,16.35
2022-10-28T09:56:58.258Z,16.44
2022-10-28T09:59:26.623Z,16.46
2022-10-28T10:01:55.031Z,16.55
2022-10-28T10:04:26.494Z,16.63
2022-10-28T10:06:59.005Z,16.64
2022-10-28T10:09:32.045Z,16.68
2022-10-28T10:12:04.713Z,16.74
2022-10-28T10:14:41.847Z,16.78
2022-10-28T10:17:17.206Z,16.87
2022-10-28T10:20:05.164Z,17.03
2022-10-28T10:22:36.002Z,17.26
2022-10-28T10:25:23.691Z,17.57
2022-10-28T10:27:53.667Z,17.80
2022-10-28T10:30:25.624Z,17.95
2022-10-28T10:32:54.239Z,18.09
2022-10-28T10:35:26.893Z,18.08
2022-10-28T10:37:58.542Z,17.98
2022-10-28T10:40:32.032Z,17.91
2022-10-28T10:43:24.657Z,17.84
2022-10-28T10:46:03.868Z,17.82
2022-10-28T10:48:36.167Z,17.88
2022-10-28T10:51:10.563Z,17.93
2022-10-28T10:53:40.958Z,18.05
2022-10-28T10:56:13.145Z,18.13
2022-10-28T10:58:49.655Z,18.29
2022-10-28T11:01:22.082Z,18.32
2022-10-28T11:03:55.000Z,18.39
2022-10-28T11:06:30.348Z,18.39
2022-10-28T11:09:01.343Z,18.45
2022-10-28T11:11:37.486Z,18.48
2022-10-28T11:14:12.409Z,18.62
2022-10-28T11:16:52.008Z,18.67
2022-10-28T11:19:23.951Z,18.79
2022-10-28T11:22:10.401Z,18.81
2022-10-28T11:24:55.456Z,18.78
2022-10-28T11:27:32.833Z,18.77
2022-10-28T11:30:02.293Z,18.75
2022-10-28T11:33:01.686Z,18.73
2022-10-28T11:35:51.202Z,18.79
2022-10-28T11:38:56.390Z,18.87
2022-10-28T11:41:38.964Z,18.96
2022-10-28T11:44:24.315Z,18.94
2022-10-28T11:47:07.876Z,18.88
2022-10-28T11:50:09.115Z,18.88
2022-10-28T11:52:54.555Z,18.84
2022-10-28T11:55:34.155Z,18.81
2022-10-28T11:58:26.442Z,18.83
2022-10-28T12:01:27.381Z,18.83
2022-10-28T12:04:10.601Z,18.87
2022-10-28T12:07:02.620Z,18.84
2022-10-28T12:09:45.558Z,18.86
2022-10-28T12:12:23.937Z,18.86
2022-10-28T12:15:02.122Z,18.97
2022-10-28T12:17:41.390Z,19.14
2022-10-28T12:20:18.686Z,19.10
2022-10-28T12:22:51.596Z,19.13
2022-10-28T12:25:26.505Z,19.19
2022-10-28T12:27:57.013Z,19.22
2022-10-28T12:30:28.985Z,19.37
2022-10-28T12:33:06.054Z,19.56
2022-10-28T12:35:38.789Z,19.86
2022-10-28T12:38:12.454Z,20.16
2022-10-28T12:40:46.064Z,20.28
2022-10-28T12:43:24.136Z,20.33
2022-10-28T12:45:56.213Z,20.50
2022-10-28T12:48:33.201Z,20.75
2022-10-28T12:51:08.005Z,20.97
2022-10-28T12:53:41.180Z,21.26
2022-10-28T12:56:14.809Z,21.54
2022-10-28T12:58:51.946Z,21.85
2022-10-28T13:01:23.632Z,22.14
2022-10-28T13:03:53.499Z,22.41
2022-10-28T13:06:42.528Z,22.69
2022-10-28T13:09:51.767Z,22.95
2022-10-28T13:12:53.378Z,23.23
2022-10-28T13:15:52.916Z,23.71
2022-10-28T13:18:48.045Z,23.89
2022-10-28T13:21:31.804Z,24.02
2022-10-28T13:24:12.640Z,24.22
2022-10-28T13:26:44.999Z,24.35
2022-10-28T13:29:23.128Z,24.55
2022-10-28T13:31:53.298Z,24.70
2022-10-28T13:34:31.847Z,24.88
2022-10-28T13:37:04.395Z,25.09
2022-10-28T13:39:45.576Z,25.04
2022-10-28T13:42:48.622Z,24.86
2022-10-28T13:45:52.428Z,24.78
2022-10-28T13:48:47.840Z,24.59
2022-10-28T13:51:37.438Z,24.40
2022-10-28T13:54:26.957Z,24.27
2022-10-28T13:57:03.369Z,24.14
2022-10-28T13:59:51.359Z,23.97
2022-10-28T14:02:35.147Z,23.92
2022-10-28T14:05:08.211Z,23.88
2022-10-28T14:07:39.974Z,23.82
2022-10-28T14:10:23.780Z,23.76
2022-10-28T14:12:56.832Z,23.71
2022-10-28T14:15:31.424Z,23.68
2022-10-28T14:18:15.885Z,23.63
2022-10-28T14:21:00.714Z,23.62
2022-10-28T14:24:01.629Z,23.60
2022-10-28T14:26:31.515Z,23.62
2022-10-28T14:28:59.856Z,23.57
2022-10-28T14:31:44.284Z,23.57
2022-10-28T14:34:44.986Z,23.53
2022-10-28T14:38:15.703Z,23.44
2022-10-28T14:40:50.890Z,23.43
2022-10-28T14:43:42.629Z,23.42
2022-10-28T14:46:33.944Z,23.36
2022-10-28T14:49:04.716Z,23.38
2022-10-28T14:51:41.800Z,23.35
2022-10-28T14:54:16.848Z,23.32
2022-10-28T14:56:46.211Z,23.31
2022-10-28T14:59:28.573Z,23.32
2022-10-28T15:02:13.902Z,23.28
2022-10-28T15:04:45.247Z,23.25
2022-10-28T15:07:16.699Z,23.23
2022-10-28T15:09:48.756Z,23.19
2022-10-28T15:12:19.060Z,23.14
2022-10-28T15:14:52.193Z,23.11
2022-10-28T15:17:23.891Z,23.13
2022-10-28T15:19:54.939Z,23.07
2022-10-28T15:22:25.396Z,23.09
2022-10-28T15:24:56.264Z,23.07
2022-10-28T15:27:26.918Z,23.03
2022-10-28T15:29:57.849Z,23.04
2022-10-28T15:32:33.681Z,23.04
2022-10-28T15:35:39.304Z,23.00
2022-10-28T15:38:34.547Z,22.99
2022-10-28T15:41:03.218Z,23.05
2022-10-28T15:43:32.484Z,23.01
2022-10-28T15:46:14.840Z,22.93
2022-10-28T15:48:43.474Z,22.89
2022-10-28T15:51:13.748Z,22.90
2022-10-28T15:53:44.167Z,22.82
2022-10-28T15:56:30.744Z,22.77
2022-10-28T15:59:11.393Z,22.78
2022-10-28T16:01:42.065Z,22.75
2022-10-28T16:04:43.972Z,22.71
2022-10-28T16:07:12.860Z,22.68
2022-10-28T16:09:47.293Z,22.60
2022-10-28T16:12:17.098Z,22.49
2022-10-28T16:14:46.808Z,22.52
2022-10-28T16:17:19.434Z,22.45
2022-10-28T16:19:53.732Z,22.34
2022-10-28T16:22:23.748Z,22.30
2022-10-28T16:24:53.666Z,22.15
2022-10-28T16:27:24.232Z,22.14
2022-10-28T16:29:52.824Z,22.06
2022-10-28T16:32:28.728Z,21.93
2022-10-28T16:34:58.581Z,21.89
2022-10-28T16:37:29.262Z,21.84
2022-10-28T16:39:58.746Z,21.77
2022-10-28T16:42:27.877Z,21.71
2022-10-28T16:44:56.092Z,21.78
2022-10-28T16:47:27.613Z,21.71
2022-10-28T16:49:57.634Z,21.71
2022-10-28T16:52:28.265Z,21.68
2022-10-28T16:54:57.810Z,21.62
2022-10-28T16:57:26.937Z,21.57
2022-10-28T16:59:55.796Z,21.54
2022-10-28T17:02:29.543Z,21.53
2022-10-28T17:04:59.321Z,21.53
2022-10-28T17:07:29.339Z,21.57
2022-10-28T17:09:58.018Z,21.56
2022-10-28T17:12:28.368Z,21.50
2022-10-28T17:14:56.659Z,21.45
2022-10-28T17:17:26.454Z,21.40
2022-10-28T17:19:54.736Z,21.36
2022-10-28T17:22:23.051Z,21.32
2022-10-28T17:24:51.453Z,21.32
2022-10-28T17:27:19.713Z,21.24
2022-10-28T17:29:48.364Z,21.22
2022-10-28T17:32:17.907Z,21.24
2022-10-28T17:34:47.992Z,21.24
2022-10-28T17:37:16.318Z,21.17
2022-10-28T17:39:44.876Z,21.13
2022-10-28T17:42:14.108Z,21.18
2022-10-28T17:44:43.535Z,21.13
2022-10-28T17:47:12.785Z,21.09
2022-10-28T17:49:41.090Z,21.11
2022-10-28T17:52:10.719Z,21.04
2022-10-28T17:54:39.064Z,21.07
2022-10-28T17:57:07.554Z,21.02
2022-10-28T17:59:35.897Z,20.97
2022-10-28T18:02:04.844Z,20.88
2022-10-28T18:04:33.286Z,20.92
2022-10-28T18:07:01.560Z,20.79
2022-10-28T18:09:31.725Z,20.76
2022-10-28T18:12:02.071Z,20.70
2022-10-28T18:14:31.009Z,20.68
2022-10-28T18:16:59.451Z,20.59
2022-10-28T18:19:27.813Z,20.53
2022-10-28T18:21:56.040Z,20.51
2022-10-28T18:24:26.089Z,20.54
2022-10-28T18:26:59.609Z,20.50
2022-10-28T18:29:27.906Z,20.48
2022-10-28T18:31:56.790Z,20.45
2022-10-28T18:34:25.234Z,20.39
2022-10-28T18:36:53.546Z,20.37
2022-10-28T18:39:21.827Z,20.35
2022-10-28T18:41:51.444Z,20.33
2022-10-28T18:44:24.125Z,20.33
2022-10-28T18:46:52.579Z,20.31
2022-10-28T18:49:20.853Z,20.32
2022-10-28T18:51:49.227Z,20.32
2022-10-28T18:54:17.506Z,20.33
2022-10-28T18:56:47.896Z,20.31
2022-10-28T18:59:16.927Z,20.28
2022-10-28T19:01:46.997Z,20.27
2022-10-28T19:04:15.776Z,20.19
2022-10-28T19:06:44.220Z,20.18
2022-10-28T19:09:12.468Z,20.16
2022-10-28T19:11:40.685Z,20.11
2022-10-28T19:14:09.819Z,20.11
2022-10-28T19:16:38.180Z,20.07
2022-10-28T19:19:07.922Z,19.98
2022-10-28T19:21:36.312Z,19.95
2022-10-28T19:24:05.400Z,19.92
2022-10-28T19:26:34.765Z,19.90
2022-10-28T19:29:05.652Z,19.87
2022-10-28T19:31:36.850Z,19.88
2022-10-28T19:34:05.654Z,19.85
2022-10-28T19:36:35.427Z,19.81
2022-10-28T19:39:04.689Z,19.81
2022-10-28T19:41:33.059Z,19.84
2022-10-28T19:44:03.690Z,19.79
2022-10-28T19:46:34.248Z,19.78
2022-10-28T19:49:05.682Z,19.78
2022-10-28T19:51:38.128Z,19.73
2022-10-28T19:54:10.795Z,19.68
2022-10-28T19:56:40.046Z,19.67
2022-10-28T19:59:08.639Z,19.61
2022-10-28T20:01:38.992Z,19.54
2022-10-28T20:04:08.237Z,19.44
2022-10-28T20:06:40.334Z,19.40
2022-10-28T20:09:08.867Z,19.37
2022-10-28T20:11:39.474Z,19.33
2022-10-28T20:14:11.477Z,19.28
2022-10-28T20:16:42.433Z,19.24
2022-10-28T20:19:11.177Z,19.24
2022-10-28T20:21:41.043Z,19.24
2022-10-28T20:24:09.879Z,19.21
2022-10-28T20:26:39.629Z,19.12
2022-10-28T20:29:09.582Z,19.07
2022-10-28T20:31:38.936Z,19.02
2022-10-28T20:34:08.707Z,19.02
2022-10-28T20:36:40.423Z,19.01
2022-10-28T20:39:13.787Z,19.03
2022-10-28T20:41:44.160Z,19.01
2022-10-28T20:44:13.868Z,18.97
2022-10-28T20:46:42.884Z,18.94
2022-10-28T20:49:13.053Z,18.89
2022-10-28T20:51:43.089Z,18.88
2022-10-28T20:54:11.339Z,18.86
2022-10-28T20:56:42.227Z,18.84
2022-10-28T20:59:10.695Z,18.85
2022-10-28T21:01:41.734Z,18.86
2022-10-28T21:04:12.412Z,18.87
2022-10-28T21:06:42.452Z,18.89
2022-10-28T21:09:11.704Z,18.87
2022-10-28T21:11:40.092Z,18.84
2022-10-28T21:14:08.597Z,18.83
2022-10-28T21:16:37.143Z,18.84
2022-10-28T21:19:05.517Z,18.72
2022-10-28T21:21:33.776Z,18.63
2022-10-28T21:24:03.690Z,18.52
2022-10-28T21:26:31.924Z,18.48
2022-10-28T21:29:00.141Z,18.49
2022-10-28T21:31:28.469Z,18.46
2022-10-28T21:33:56.780Z,18.37
2022-10-28T21:36:25.139Z,18.28
2022-10-28T21:38:56.343Z,18.26
2022-10-28T21:41:26.543Z,18.27
2022-10-28T21:43:55.452Z,18.25
2022-10-28T21:46:24.322Z,18.24
2022-10-28T21:48:53.998Z,18.18
2022-10-28T21:51:22.455Z,18.12
2022-10-28T21:53:50.712Z,18.14
2022-10-28T21:56:20.564Z,18.13
2022-10-28T21:58:52.214Z,18.02
2022-10-28T22:01:23.747Z,17.85
2022-10-28T22:03:55.544Z,17.78
2022-10-28T22:06:24.337Z,17.71
2022-10-28T22:08:54.104Z,17.69
2022-10-28T22:11:24.827Z,17.57
2022-10-28T22:14:00.308Z,17.51
2022-10-28T22:16:30.726Z,17.50
2022-10-28T22:19:00.776Z,17.43
2022-10-28T22:21:32.305Z,17.37
2022-10-28T22:24:01.115Z,17.30
2022-10-28T22:26:31.787Z,17.27
2022-10-28T22:29:01.690Z,17.28
2022-10-28T22:31:32.527Z,17.26
2022-10-28T22:34:01.357Z,17.21
2022-10-28T22:36:31.194Z,17.14
2022-10-28T22:38:59.452Z,17.13
2022-10-28T22:41:29.771Z,17.14
2022-10-28T22:44:02.006Z,17.09
2022-10-28T22:46:36.543Z,17.06
2022-10-28T22:49:05.282Z,17.01
2022-10-28T22:51:33.964Z,16.97
2022-10-28T22:54:02.179Z,16.95
2022-10-28T22:56:30.622Z,16.94
2022-10-28T22:59:02.685Z,16.93
2022-10-28T23:01:31.382Z,16.89
2022-10-28T23:04:00.887Z,16.85
2022-10-28T23:06:30.117Z,16.80
2022-10-28T23:08:59.203Z,16.81
2022-10-28T23:11:27.675Z,16.80
2022-10-28T23:13:56.739Z,16.76
2022-10-28T23:16:26.643Z,16.69
2022-10-28T23:18:55.093Z,16.69
2022-10-28T23:21:25.778Z,16.62
2022-10-28T23:23:55.546Z,16.57
2022-10-28T23:26:25.295Z,16.47
2022-10-28T23:28:55.475Z,16.44
2022-10-28T23:31:26.050Z,16.31
2022-10-28T23:33:55.105Z,16.30
2022-10-28T23:36:24.054Z,16.29
2022-10-28T23:38:53.842Z,16.26
2022-10-28T23:41:22.046Z,16.27
2022-10-28T23:43:50.616Z,16.21
2022-10-28T23:46:20.359Z,16.16
2022-10-28T23:48:50.032Z,16.16
2022-10-28T23:51:20.467Z,16.15
2022-10-28T23:53:48.749Z,16.16
2022-10-28T23:56:17.201Z,16.17
2022-10-28T23:58:45.476Z,16.14
